sensor_id;sensor_type;location;lat;lon;timestamp;P1;durP1;ratioP1;P2;durP2;ratioP2
53781;SDS011;39692;53.114;7.060;2022-08-05T00:00:04;6.30;;;5.20;;
53781;SDS011;39692;53.114;7.060;2022-08-05T00:02:30;6.07;;;4.50;;
53781;SDS011;39692;53.114;7.060;2022-08-05T00:04:55;8.75;;;4.78;;
53781;SDS011;39692;53.114;7.060;2022-08-05T00:07:22;7.88;;;6.03;;
53781;SDS011;39692;53.114;7.060;2022-08-05T00:09:48;8.90;;;5.43;;
53781;SDS011;39692;53.114;7.060;2022-08-05T00:12:13;8.20;;;5.03;;
53781;SDS011;39692;53.114;7.060;2022-08-05T00:14:39;8.05;;;4.75;;
53781;SDS011;39692;53.114;7.060;2022-08-05T00:17:04;9.18;;;5.53;;
53781;SDS011;39692;53.114;7.060;2022-08-05T00:19:30;11.63;;;5.57;;
53781;SDS011;39692;53.114;7.060;2022-08-05T00:21:56;7.82;;;5.07;;
53781;SDS011;39692;53.114;7.060;2022-08-05T00:24:22;11.30;;;5.03;;
53781;SDS011;39692;53.114;7.060;2022-08-05T00:26:47;8.98;;;4.75;;
53781;SDS011;39692;53.114;7.060;2022-08-05T00:29:13;4.82;;;3.90;;
53781;SDS011;39692;53.114;7.060;2022-08-05T00:31:39;5.25;;;4.00;;
53781;SDS011;39692;53.114;7.060;2022-08-05T00:34:04;8.82;;;4.75;;
53781;SDS011;39692;53.114;7.060;2022-08-05T00:36:30;6.63;;;3.95;;
53781;SDS011;39692;53.114;7.060;2022-08-05T00:38:56;7.47;;;3.88;;
53781;SDS011;39692;53.114;7.060;2022-08-05T00:41:32;5.43;;;2.72;;
53781;SDS011;39692;53.114;7.060;2022-08-05T00:43:58;6.35;;;3.60;;
53781;SDS011;39692;53.114;7.060;2022-08-05T00:46:25;6.00;;;3.47;;
53781;SDS011;39692;53.114;7.060;2022-08-05T00:48:51;7.25;;;3.10;;
53781;SDS011;39692;53.114;7.060;2022-08-05T00:51:18;5.35;;;2.90;;
53781;SDS011;39692;53.114;7.060;2022-08-05T00:53:44;5.70;;;2.97;;
53781;SDS011;39692;53.114;7.060;2022-08-05T00:56:11;6.00;;;3.20;;
53781;SDS011;39692;53.114;7.060;2022-08-05T00:58:39;5.05;;;2.97;;
53781;SDS011;39692;53.114;7.060;2022-08-05T01:01:04;4.88;;;3.20;;
53781;SDS011;39692;53.114;7.060;2022-08-05T01:03:30;5.10;;;3.42;;
53781;SDS011;39692;53.114;7.060;2022-08-05T01:05:56;5.40;;;3.00;;
53781;SDS011;39692;53.114;7.060;2022-08-05T01:08:21;5.25;;;3.40;;
53781;SDS011;39692;53.114;7.060;2022-08-05T01:10:48;5.18;;;3.00;;
53781;SDS011;39692;53.114;7.060;2022-08-05T01:13:22;6.70;;;3.65;;
53781;SDS011;39692;53.114;7.060;2022-08-05T01:15:57;7.32;;;2.88;;
53781;SDS011;39692;53.114;7.060;2022-08-05T01:18:28;4.75;;;2.88;;
53781;SDS011;39692;53.114;7.060;2022-08-05T01:26:34;5.60;;;3.13;;
53781;SDS011;39692;53.114;7.060;2022-08-05T01:29:25;7.95;;;3.63;;
53781;SDS011;39692;53.114;7.060;2022-08-05T01:31:58;5.45;;;3.15;;
53781;SDS011;39692;53.114;7.060;2022-08-05T01:34:49;6.00;;;3.15;;
53781;SDS011;39692;53.114;7.060;2022-08-05T01:37:43;4.80;;;3.53;;
53781;SDS011;39692;53.114;7.060;2022-08-05T01:40:11;5.85;;;3.60;;
53781;SDS011;39692;53.114;7.060;2022-08-05T01:42:40;4.55;;;3.28;;
53781;SDS011;39692;53.114;7.060;2022-08-05T01:45:08;6.90;;;3.65;;
53781;SDS011;39692;53.114;7.060;2022-08-05T01:47:37;6.97;;;3.72;;
53781;SDS011;39692;53.114;7.060;2022-08-05T01:50:05;6.38;;;3.55;;
53781;SDS011;39692;53.114;7.060;2022-08-05T01:53:08;6.72;;;3.45;;
53781;SDS011;39692;53.114;7.060;2022-08-05T01:55:37;5.13;;;3.50;;
53781;SDS011;39692;53.114;7.060;2022-08-05T01:58:05;6.65;;;4.00;;
53781;SDS011;39692;53.114;7.060;2022-08-05T02:00:34;6.28;;;3.30;;
53781;SDS011;39692;53.114;7.060;2022-08-05T02:03:11;4.82;;;3.55;;
53781;SDS011;39692;53.114;7.060;2022-08-05T02:05:36;5.35;;;3.50;;
53781;SDS011;39692;53.114;7.060;2022-08-05T02:08:04;5.68;;;3.25;;
53781;SDS011;39692;53.114;7.060;2022-08-05T02:10:35;6.88;;;4.05;;
53781;SDS011;39692;53.114;7.060;2022-08-05T02:13:32;6.28;;;3.83;;
53781;SDS011;39692;53.114;7.060;2022-08-05T02:16:19;7.45;;;3.55;;
53781;SDS011;39692;53.114;7.060;2022-08-05T02:19:02;5.35;;;3.53;;
53781;SDS011;39692;53.114;7.060;2022-08-05T02:21:51;5.82;;;3.25;;
53781;SDS011;39692;53.114;7.060;2022-08-05T02:24:38;6.85;;;3.60;;
53781;SDS011;39692;53.114;7.060;2022-08-05T02:27:07;5.68;;;4.40;;
53781;SDS011;39692;53.114;7.060;2022-08-05T02:29:35;8.55;;;5.63;;
53781;SDS011;39692;53.114;7.060;2022-08-05T02:32:02;5.95;;;4.70;;
53781;SDS011;39692;53.114;7.060;2022-08-05T02:34:30;8.10;;;5.47;;
53781;SDS011;39692;53.114;7.060;2022-08-05T02:37:00;6.85;;;4.50;;
53781;SDS011;39692;53.114;7.060;2022-08-05T02:39:30;7.32;;;4.80;;
53781;SDS011;39692;53.114;7.060;2022-08-05T02:42:00;6.60;;;4.70;;
53781;SDS011;39692;53.114;7.060;2022-08-05T02:44:28;9.73;;;4.75;;
53781;SDS011;39692;53.114;7.060;2022-08-05T02:46:55;10.95;;;5.25;;
53781;SDS011;39692;53.114;7.060;2022-08-05T02:49:23;7.90;;;5.20;;
53781;SDS011;39692;53.114;7.060;2022-08-05T02:51:50;8.30;;;5.68;;
53781;SDS011;39692;53.114;7.060;2022-08-05T02:54:16;7.05;;;4.85;;
53781;SDS011;39692;53.114;7.060;2022-08-05T02:56:45;8.88;;;5.20;;
53781;SDS011;39692;53.114;7.060;2022-08-05T02:59:11;8.40;;;5.60;;
53781;SDS011;39692;53.114;7.060;2022-08-05T03:01:38;6.82;;;5.18;;
53781;SDS011;39692;53.114;7.060;2022-08-05T03:04:05;7.88;;;4.80;;
53781;SDS011;39692;53.114;7.060;2022-08-05T03:06:35;7.55;;;5.00;;
53781;SDS011;39692;53.114;7.060;2022-08-05T03:09:02;10.38;;;5.78;;
53781;SDS011;39692;53.114;7.060;2022-08-05T03:11:28;11.05;;;5.53;;
53781;SDS011;39692;53.114;7.060;2022-08-05T03:13:54;9.07;;;5.30;;
53781;SDS011;39692;53.114;7.060;2022-08-05T03:16:19;9.48;;;5.35;;
53781;SDS011;39692;53.114;7.060;2022-08-05T03:18:46;6.13;;;4.75;;
53781;SDS011;39692;53.114;7.060;2022-08-05T03:21:12;8.02;;;5.50;;
53781;SDS011;39692;53.114;7.060;2022-08-05T03:23:38;7.30;;;5.40;;
53781;SDS011;39692;53.114;7.060;2022-08-05T03:26:06;7.45;;;4.68;;
53781;SDS011;39692;53.114;7.060;2022-08-05T03:28:32;6.70;;;4.68;;
53781;SDS011;39692;53.114;7.060;2022-08-05T03:30:58;6.70;;;4.97;;
53781;SDS011;39692;53.114;7.060;2022-08-05T03:33:26;8.18;;;4.90;;
53781;SDS011;39692;53.114;7.060;2022-08-05T03:35:53;9.48;;;5.10;;
53781;SDS011;39692;53.114;7.060;2022-08-05T03:38:20;9.05;;;4.60;;
53781;SDS011;39692;53.114;7.060;2022-08-05T03:40:47;6.63;;;4.78;;
53781;SDS011;39692;53.114;7.060;2022-08-05T03:43:13;7.78;;;5.03;;
53781;SDS011;39692;53.114;7.060;2022-08-05T03:45:40;8.45;;;4.70;;
53781;SDS011;39692;53.114;7.060;2022-08-05T03:48:05;7.22;;;4.70;;
53781;SDS011;39692;53.114;7.060;2022-08-05T03:50:37;7.45;;;4.78;;
53781;SDS011;39692;53.114;7.060;2022-08-05T03:56:37;11.18;;;4.95;;
53781;SDS011;39692;53.114;7.060;2022-08-05T03:58:52;7.45;;;4.43;;
53781;SDS011;39692;53.114;7.060;2022-08-05T04:01:21;6.55;;;4.30;;
53781;SDS011;39692;53.114;7.060;2022-08-05T04:03:49;5.00;;;4.43;;
53781;SDS011;39692;53.114;7.060;2022-08-05T04:06:17;7.85;;;4.53;;
53781;SDS011;39692;53.114;7.060;2022-08-05T04:08:43;6.53;;;4.72;;
53781;SDS011;39692;53.114;7.060;2022-08-05T04:11:09;6.25;;;4.40;;
53781;SDS011;39692;53.114;7.060;2022-08-05T04:13:39;6.78;;;4.90;;
53781;SDS011;39692;53.114;7.060;2022-08-05T04:16:08;8.15;;;5.10;;
53781;SDS011;39692;53.114;7.060;2022-08-05T04:18:34;7.28;;;4.85;;
53781;SDS011;39692;53.114;7.060;2022-08-05T04:21:00;7.47;;;5.07;;
53781;SDS011;39692;53.114;7.060;2022-08-05T04:23:27;6.65;;;5.28;;
53781;SDS011;39692;53.114;7.060;2022-08-05T04:25:53;7.22;;;5.20;;
53781;SDS011;39692;53.114;7.060;2022-08-05T04:28:19;9.30;;;5.35;;
53781;SDS011;39692;53.114;7.060;2022-08-05T04:30:45;7.82;;;4.88;;
53781;SDS011;39692;53.114;7.060;2022-08-05T04:33:12;7.72;;;4.85;;
53781;SDS011;39692;53.114;7.060;2022-08-05T04:35:38;7.45;;;5.25;;
53781;SDS011;39692;53.114;7.060;2022-08-05T04:38:05;7.65;;;5.00;;
53781;SDS011;39692;53.114;7.060;2022-08-05T04:40:37;7.82;;;4.53;;
53781;SDS011;39692;53.114;7.060;2022-08-05T04:43:04;5.85;;;4.50;;
53781;SDS011;39692;53.114;7.060;2022-08-05T04:45:31;6.70;;;4.82;;
53781;SDS011;39692;53.114;7.060;2022-08-05T04:48:04;6.25;;;4.53;;
53781;SDS011;39692;53.114;7.060;2022-08-05T04:50:31;10.15;;;4.85;;
53781;SDS011;39692;53.114;7.060;2022-08-05T04:53:12;7.75;;;4.97;;
53781;SDS011;39692;53.114;7.060;2022-08-05T04:55:39;8.02;;;4.88;;
53781;SDS011;39692;53.114;7.060;2022-08-05T04:58:07;5.50;;;4.40;;
53781;SDS011;39692;53.114;7.060;2022-08-05T05:00:35;6.15;;;4.35;;
53781;SDS011;39692;53.114;7.060;2022-08-05T05:03:01;7.88;;;5.20;;
53781;SDS011;39692;53.114;7.060;2022-08-05T05:05:28;7.68;;;4.50;;
53781;SDS011;39692;53.114;7.060;2022-08-05T05:08:04;8.15;;;4.65;;
53781;SDS011;39692;53.114;7.060;2022-08-05T05:10:41;9.05;;;4.78;;
53781;SDS011;39692;53.114;7.060;2022-08-05T05:13:09;7.03;;;5.07;;
53781;SDS011;39692;53.114;7.060;2022-08-05T05:15:37;6.80;;;4.97;;
53781;SDS011;39692;53.114;7.060;2022-08-05T05:18:04;5.55;;;4.38;;
53781;SDS011;39692;53.114;7.060;2022-08-05T05:20:30;9.77;;;4.65;;
53781;SDS011;39692;53.114;7.060;2022-08-05T05:22:56;7.35;;;4.68;;
53781;SDS011;39692;53.114;7.060;2022-08-05T05:25:22;8.82;;;5.43;;
53781;SDS011;39692;53.114;7.060;2022-08-05T05:27:48;5.72;;;4.60;;
53781;SDS011;39692;53.114;7.060;2022-08-05T05:30:16;6.55;;;4.55;;
53781;SDS011;39692;53.114;7.060;2022-08-05T05:32:42;9.15;;;4.97;;
53781;SDS011;39692;53.114;7.060;2022-08-05T05:35:08;9.07;;;5.80;;
53781;SDS011;39692;53.114;7.060;2022-08-05T05:37:44;7.93;;;5.07;;
53781;SDS011;39692;53.114;7.060;2022-08-05T05:40:13;8.15;;;6.00;;
53781;SDS011;39692;53.114;7.060;2022-08-05T05:42:39;6.93;;;5.93;;
53781;SDS011;39692;53.114;7.060;2022-08-05T05:45:05;10.20;;;5.90;;
53781;SDS011;39692;53.114;7.060;2022-08-05T05:47:31;7.20;;;5.40;;
53781;SDS011;39692;53.114;7.060;2022-08-05T05:49:58;9.48;;;6.00;;
53781;SDS011;39692;53.114;7.060;2022-08-05T05:52:24;9.52;;;5.97;;
53781;SDS011;39692;53.114;7.060;2022-08-05T05:54:49;8.93;;;5.78;;
53781;SDS011;39692;53.114;7.060;2022-08-05T05:57:15;6.97;;;5.30;;
53781;SDS011;39692;53.114;7.060;2022-08-05T05:59:40;6.35;;;5.65;;
53781;SDS011;39692;53.114;7.060;2022-08-05T06:02:06;8.50;;;5.63;;
53781;SDS011;39692;53.114;7.060;2022-08-05T06:04:32;7.78;;;5.47;;
53781;SDS011;39692;53.114;7.060;2022-08-05T06:06:57;7.68;;;5.05;;
53781;SDS011;39692;53.114;7.060;2022-08-05T06:09:23;10.45;;;5.53;;
53781;SDS011;39692;53.114;7.060;2022-08-05T06:11:49;6.63;;;5.45;;
53781;SDS011;39692;53.114;7.060;2022-08-05T06:14:14;6.20;;;4.68;;
53781;SDS011;39692;53.114;7.060;2022-08-05T06:16:40;7.97;;;5.03;;
53781;SDS011;39692;53.114;7.060;2022-08-05T06:19:06;6.85;;;5.13;;
53781;SDS011;39692;53.114;7.060;2022-08-05T06:21:31;8.30;;;6.03;;
53781;SDS011;39692;53.114;7.060;2022-08-05T06:23:57;6.28;;;4.60;;
53781;SDS011;39692;53.114;7.060;2022-08-05T06:26:23;5.93;;;4.63;;
53781;SDS011;39692;53.114;7.060;2022-08-05T06:28:49;6.10;;;4.35;;
53781;SDS011;39692;53.114;7.060;2022-08-05T06:31:15;7.22;;;4.25;;
53781;SDS011;39692;53.114;7.060;2022-08-05T06:33:40;7.30;;;4.57;;
53781;SDS011;39692;53.114;7.060;2022-08-05T06:36:06;9.38;;;4.20;;
53781;SDS011;39692;53.114;7.060;2022-08-05T06:38:32;5.68;;;4.53;;
53781;SDS011;39692;53.114;7.060;2022-08-05T06:40:57;7.55;;;4.60;;
53781;SDS011;39692;53.114;7.060;2022-08-05T06:43:23;6.63;;;4.30;;
53781;SDS011;39692;53.114;7.060;2022-08-05T06:45:49;5.75;;;3.88;;
53781;SDS011;39692;53.114;7.060;2022-08-05T06:48:15;5.93;;;4.32;;
53781;SDS011;39692;53.114;7.060;2022-08-05T06:50:40;7.47;;;4.65;;
53781;SDS011;39692;53.114;7.060;2022-08-05T06:53:06;6.85;;;3.50;;
53781;SDS011;39692;53.114;7.060;2022-08-05T06:55:31;5.53;;;3.28;;
53781;SDS011;39692;53.114;7.060;2022-08-05T06:57:57;3.95;;;2.85;;
53781;SDS011;39692;53.114;7.060;2022-08-05T07:00:23;5.10;;;3.25;;
53781;SDS011;39692;53.114;7.060;2022-08-05T07:02:49;5.30;;;2.80;;
53781;SDS011;39692;53.114;7.060;2022-08-05T07:05:15;4.40;;;3.00;;
53781;SDS011;39692;53.114;7.060;2022-08-05T07:07:40;6.65;;;3.03;;
53781;SDS011;39692;53.114;7.060;2022-08-05T07:10:07;4.32;;;3.22;;
53781;SDS011;39692;53.114;7.060;2022-08-05T07:12:34;3.55;;;2.25;;
53781;SDS011;39692;53.114;7.060;2022-08-05T07:15:23;3.63;;;2.50;;
53781;SDS011;39692;53.114;7.060;2022-08-05T07:18:07;4.97;;;2.53;;
53781;SDS011;39692;53.114;7.060;2022-08-05T07:20:33;4.35;;;2.60;;
53781;SDS011;39692;53.114;7.060;2022-08-05T07:22:59;5.95;;;2.90;;
53781;SDS011;39692;53.114;7.060;2022-08-05T07:25:24;4.90;;;2.80;;
53781;SDS011;39692;53.114;7.060;2022-08-05T07:27:51;4.45;;;2.80;;
53781;SDS011;39692;53.114;7.060;2022-08-05T07:30:17;3.83;;;2.72;;
53781;SDS011;39692;53.114;7.060;2022-08-05T07:32:43;6.00;;;2.65;;
53781;SDS011;39692;53.114;7.060;2022-08-05T07:35:09;4.82;;;2.60;;
53781;SDS011;39692;53.114;7.060;2022-08-05T07:37:36;5.72;;;2.38;;
53781;SDS011;39692;53.114;7.060;2022-08-05T07:40:03;5.75;;;2.50;;
53781;SDS011;39692;53.114;7.060;2022-08-05T07:42:29;4.22;;;2.22;;
53781;SDS011;39692;53.114;7.060;2022-08-05T07:44:55;4.80;;;2.47;;
53781;SDS011;39692;53.114;7.060;2022-08-05T07:47:21;4.70;;;2.40;;
53781;SDS011;39692;53.114;7.060;2022-08-05T07:49:47;3.03;;;1.90;;
53781;SDS011;39692;53.114;7.060;2022-08-05T07:52:12;4.85;;;2.13;;
53781;SDS011;39692;53.114;7.060;2022-08-05T07:54:38;4.07;;;2.10;;
53781;SDS011;39692;53.114;7.060;2022-08-05T07:57:04;4.25;;;2.20;;
53781;SDS011;39692;53.114;7.060;2022-08-05T07:59:29;3.60;;;2.00;;
53781;SDS011;39692;53.114;7.060;2022-08-05T08:01:55;3.47;;;1.85;;
53781;SDS011;39692;53.114;7.060;2022-08-05T08:04:21;3.33;;;1.60;;
53781;SDS011;39692;53.114;7.060;2022-08-05T08:06:46;2.83;;;1.50;;
53781;SDS011;39692;53.114;7.060;2022-08-05T08:09:12;3.08;;;1.95;;
53781;SDS011;39692;53.114;7.060;2022-08-05T08:11:38;3.88;;;1.70;;
53781;SDS011;39692;53.114;7.060;2022-08-05T08:14:03;3.45;;;1.40;;
53781;SDS011;39692;53.114;7.060;2022-08-05T08:16:29;3.78;;;1.33;;
53781;SDS011;39692;53.114;7.060;2022-08-05T08:18:54;2.47;;;1.02;;
53781;SDS011;39692;53.114;7.060;2022-08-05T08:21:20;3.97;;;1.20;;
53781;SDS011;39692;53.114;7.060;2022-08-05T08:23:46;3.97;;;1.20;;
53781;SDS011;39692;53.114;7.060;2022-08-05T08:26:12;2.80;;;1.10;;
53781;SDS011;39692;53.114;7.060;2022-08-05T08:28:37;2.42;;;1.40;;
53781;SDS011;39692;53.114;7.060;2022-08-05T08:31:06;2.28;;;1.35;;
53781;SDS011;39692;53.114;7.060;2022-08-05T08:33:32;3.67;;;1.30;;
53781;SDS011;39692;53.114;7.060;2022-08-05T08:35:58;2.22;;;1.20;;
53781;SDS011;39692;53.114;7.060;2022-08-05T08:38:24;1.75;;;1.10;;
53781;SDS011;39692;53.114;7.060;2022-08-05T08:40:50;2.53;;;1.30;;
53781;SDS011;39692;53.114;7.060;2022-08-05T08:43:15;4.20;;;0.93;;
53781;SDS011;39692;53.114;7.060;2022-08-05T08:45:43;2.83;;;0.90;;
53781;SDS011;39692;53.114;7.060;2022-08-05T08:48:11;2.60;;;1.23;;
53781;SDS011;39692;53.114;7.060;2022-08-05T08:50:40;2.63;;;1.23;;
53781;SDS011;39692;53.114;7.060;2022-08-05T08:53:07;2.95;;;1.45;;
53781;SDS011;39692;53.114;7.060;2022-08-05T08:55:36;3.92;;;1.30;;
53781;SDS011;39692;53.114;7.060;2022-08-05T08:58:03;3.28;;;1.10;;
53781;SDS011;39692;53.114;7.060;2022-08-05T09:00:28;4.05;;;1.17;;
53781;SDS011;39692;53.114;7.060;2022-08-05T09:02:55;2.53;;;1.17;;
53781;SDS011;39692;53.114;7.060;2022-08-05T09:05:21;2.08;;;1.00;;
53781;SDS011;39692;53.114;7.060;2022-08-05T09:07:49;2.25;;;1.02;;
53781;SDS011;39692;53.114;7.060;2022-08-05T09:10:16;4.22;;;1.30;;
53781;SDS011;39692;53.114;7.060;2022-08-05T09:12:42;2.00;;;0.90;;
53781;SDS011;39692;53.114;7.060;2022-08-05T09:15:08;3.03;;;1.20;;
53781;SDS011;39692;53.114;7.060;2022-08-05T09:17:34;4.10;;;1.52;;
53781;SDS011;39692;53.114;7.060;2022-08-05T09:20:00;2.80;;;1.10;;
53781;SDS011;39692;53.114;7.060;2022-08-05T09:22:28;2.50;;;1.50;;
53781;SDS011;39692;53.114;7.060;2022-08-05T09:24:57;3.35;;;1.30;;
53781;SDS011;39692;53.114;7.060;2022-08-05T09:27:34;3.85;;;1.58;;
53781;SDS011;39692;53.114;7.060;2022-08-05T09:30:04;4.82;;;1.25;;
53781;SDS011;39692;53.114;7.060;2022-08-05T09:32:34;3.30;;;1.10;;
53781;SDS011;39692;53.114;7.060;2022-08-05T09:35:08;3.55;;;1.00;;
53781;SDS011;39692;53.114;7.060;2022-08-05T09:37:39;14.98;;;1.77;;
53781;SDS011;39692;53.114;7.060;2022-08-05T09:40:49;2.58;;;1.25;;
53781;SDS011;39692;53.114;7.060;2022-08-05T09:43:08;5.28;;;1.33;;
53781;SDS011;39692;53.114;7.060;2022-08-05T09:45:59;3.47;;;1.10;;
53781;SDS011;39692;53.114;7.060;2022-08-05T09:48:27;3.63;;;1.05;;
53781;SDS011;39692;53.114;7.060;2022-08-05T09:51:03;2.55;;;1.10;;
53781;SDS011;39692;53.114;7.060;2022-08-05T09:53:49;2.88;;;0.82;;
53781;SDS011;39692;53.114;7.060;2022-08-05T09:56:23;2.03;;;0.88;;
53781;SDS011;39692;53.114;7.060;2022-08-05T09:59:00;3.30;;;0.93;;
53781;SDS011;39692;53.114;7.060;2022-08-05T10:01:28;4.45;;;1.00;;
53781;SDS011;39692;53.114;7.060;2022-08-05T10:04:03;6.40;;;1.27;;
53781;SDS011;39692;53.114;7.060;2022-08-05T10:06:32;1.48;;;0.85;;
53781;SDS011;39692;53.114;7.060;2022-08-05T10:09:14;3.63;;;1.08;;
53781;SDS011;39692;53.114;7.060;2022-08-05T10:11:43;2.15;;;0.82;;
53781;SDS011;39692;53.114;7.060;2022-08-05T10:14:30;2.88;;;1.00;;
53781;SDS011;39692;53.114;7.060;2022-08-05T10:17:11;4.43;;;1.08;;
53781;SDS011;39692;53.114;7.060;2022-08-05T10:19:38;2.28;;;0.85;;
53781;SDS011;39692;53.114;7.060;2022-08-05T10:22:04;3.38;;;1.00;;
53781;SDS011;39692;53.114;7.060;2022-08-05T10:24:31;3.78;;;0.80;;
53781;SDS011;39692;53.114;7.060;2022-08-05T10:26:57;3.53;;;1.00;;
53781;SDS011;39692;53.114;7.060;2022-08-05T10:29:24;3.92;;;1.10;;
53781;SDS011;39692;53.114;7.060;2022-08-05T10:31:51;3.25;;;0.75;;
53781;SDS011;39692;53.114;7.060;2022-08-05T10:34:17;1.88;;;0.60;;
53781;SDS011;39692;53.114;7.060;2022-08-05T10:36:43;1.52;;;0.70;;
53781;SDS011;39692;53.114;7.060;2022-08-05T10:39:11;2.55;;;0.77;;
53781;SDS011;39692;53.114;7.060;2022-08-05T10:41:46;2.17;;;0.60;;
53781;SDS011;39692;53.114;7.060;2022-08-05T10:44:24;1.83;;;0.60;;
53781;SDS011;39692;53.114;7.060;2022-08-05T10:46:52;2.30;;;0.75;;
53781;SDS011;39692;53.114;7.060;2022-08-05T10:49:20;3.13;;;0.70;;
53781;SDS011;39692;53.114;7.060;2022-08-05T10:51:48;2.95;;;0.65;;
53781;SDS011;39692;53.114;7.060;2022-08-05T10:57:11;2.00;;;0.55;;
53781;SDS011;39692;53.114;7.060;2022-08-05T11:00:05;3.70;;;0.80;;
53781;SDS011;39692;53.114;7.060;2022-08-05T11:02:31;2.55;;;0.70;;
53781;SDS011;39692;53.114;7.060;2022-08-05T11:04:56;2.80;;;0.50;;
53781;SDS011;39692;53.114;7.060;2022-08-05T11:07:22;1.55;;;0.60;;
53781;SDS011;39692;53.114;7.060;2022-08-05T11:09:49;3.13;;;0.77;;
53781;SDS011;39692;53.114;7.060;2022-08-05T11:17:40;3.13;;;0.70;;
53781;SDS011;39692;53.114;7.060;2022-08-05T11:28:35;1.75;;;0.57;;
53781;SDS011;39692;53.114;7.060;2022-08-05T11:33:28;3.00;;;0.70;;
53781;SDS011;39692;53.114;7.060;2022-08-05T11:35:55;2.70;;;0.40;;
53781;SDS011;39692;53.114;7.060;2022-08-05T11:41:03;1.35;;;0.38;;
53781;SDS011;39692;53.114;7.060;2022-08-05T11:43:30;2.78;;;0.30;;
53781;SDS011;39692;53.114;7.060;2022-08-05T11:45:57;6.28;;;0.47;;
53781;SDS011;39692;53.114;7.060;2022-08-05T11:48:24;2.53;;;0.80;;
53781;SDS011;39692;53.114;7.060;2022-08-05T11:50:52;4.63;;;0.32;;
53781;SDS011;39692;53.114;7.060;2022-08-05T11:53:18;1.58;;;0.30;;
53781;SDS011;39692;53.114;7.060;2022-08-05T11:56:00;5.35;;;0.60;;
53781;SDS011;39692;53.114;7.060;2022-08-05T11:58:33;1.40;;;0.40;;
53781;SDS011;39692;53.114;7.060;2022-08-05T12:03:38;0.98;;;0.30;;
53781;SDS011;39692;53.114;7.060;2022-08-05T12:06:09;1.17;;;0.50;;
53781;SDS011;39692;53.114;7.060;2022-08-05T12:11:09;3.78;;;0.38;;
53781;SDS011;39692;53.114;7.060;2022-08-05T12:13:41;3.25;;;0.40;;
53781;SDS011;39692;53.114;7.060;2022-08-05T12:16:21;1.17;;;0.45;;
53781;SDS011;39692;53.114;7.060;2022-08-05T12:18:47;5.65;;;0.50;;
53781;SDS011;39692;53.114;7.060;2022-08-05T12:21:17;1.80;;;0.68;;
53781;SDS011;39692;53.114;7.060;2022-08-05T12:23:52;2.72;;;0.40;;
53781;SDS011;39692;53.114;7.060;2022-08-05T12:29:04;4.07;;;0.57;;
53781;SDS011;39692;53.114;7.060;2022-08-05T12:31:54;2.80;;;0.75;;
53781;SDS011;39692;53.114;7.060;2022-08-05T12:34:22;1.70;;;0.47;;
53781;SDS011;39692;53.114;7.060;2022-08-05T12:36:57;5.07;;;0.43;;
53781;SDS011;39692;53.114;7.060;2022-08-05T12:39:25;3.10;;;0.40;;
53781;SDS011;39692;53.114;7.060;2022-08-05T12:41:58;3.70;;;0.70;;
53781;SDS011;39692;53.114;7.060;2022-08-05T12:44:24;2.58;;;0.73;;
53781;SDS011;39692;53.114;7.060;2022-08-05T12:46:51;4.45;;;0.70;;
53781;SDS011;39692;53.114;7.060;2022-08-05T12:49:18;2.20;;;0.52;;
53781;SDS011;39692;53.114;7.060;2022-08-05T12:54:10;1.60;;;0.50;;
53781;SDS011;39692;53.114;7.060;2022-08-05T12:56:53;6.88;;;0.70;;
53781;SDS011;39692;53.114;7.060;2022-08-05T12:59:22;14.27;;;1.52;;
53781;SDS011;39692;53.114;7.060;2022-08-05T13:02:03;5.15;;;0.60;;
53781;SDS011;39692;53.114;7.060;2022-08-05T13:04:33;16.90;;;1.95;;
53781;SDS011;39692;53.114;7.060;2022-08-05T13:07:05;13.65;;;1.45;;
53781;SDS011;39692;53.114;7.060;2022-08-05T13:09:34;10.70;;;1.30;;
53781;SDS011;39692;53.114;7.060;2022-08-05T13:12:04;1.63;;;0.50;;
53781;SDS011;39692;53.114;7.060;2022-08-05T13:14:39;3.08;;;0.63;;
53781;SDS011;39692;53.114;7.060;2022-08-05T13:17:31;3.20;;;0.65;;
53781;SDS011;39692;53.114;7.060;2022-08-05T13:20:00;5.28;;;0.60;;
53781;SDS011;39692;53.114;7.060;2022-08-05T13:22:28;4.90;;;0.75;;
53781;SDS011;39692;53.114;7.060;2022-08-05T13:24:56;10.55;;;1.63;;
53781;SDS011;39692;53.114;7.060;2022-08-05T13:27:29;7.13;;;0.88;;
53781;SDS011;39692;53.114;7.060;2022-08-05T13:29:58;12.43;;;1.45;;
53781;SDS011;39692;53.114;7.060;2022-08-05T13:32:24;9.27;;;0.88;;
53781;SDS011;39692;53.114;7.060;2022-08-05T13:34:51;4.75;;;0.38;;
53781;SDS011;39692;53.114;7.060;2022-08-05T13:37:17;2.22;;;0.90;;
53781;SDS011;39692;53.114;7.060;2022-08-05T13:39:45;2.45;;;0.82;;
53781;SDS011;39692;53.114;7.060;2022-08-05T13:42:21;1.63;;;0.47;;
53781;SDS011;39692;53.114;7.060;2022-08-05T13:44:54;3.53;;;0.65;;
53781;SDS011;39692;53.114;7.060;2022-08-05T13:47:21;3.08;;;0.40;;
53781;SDS011;39692;53.114;7.060;2022-08-05T13:49:48;1.77;;;0.52;;
53781;SDS011;39692;53.114;7.060;2022-08-05T13:52:32;3.38;;;0.55;;
53781;SDS011;39692;53.114;7.060;2022-08-05T13:54:58;4.60;;;0.52;;
53781;SDS011;39692;53.114;7.060;2022-08-05T13:57:24;3.97;;;0.73;;
53781;SDS011;39692;53.114;7.060;2022-08-05T13:59:50;2.38;;;0.60;;
53781;SDS011;39692;53.114;7.060;2022-08-05T14:02:15;2.10;;;0.50;;
53781;SDS011;39692;53.114;7.060;2022-08-05T14:04:45;1.42;;;0.40;;
53781;SDS011;39692;53.114;7.060;2022-08-05T14:07:31;4.10;;;0.80;;
53781;SDS011;39692;53.114;7.060;2022-08-05T14:09:59;4.07;;;0.88;;
53781;SDS011;39692;53.114;7.060;2022-08-05T14:12:25;4.72;;;0.82;;
53781;SDS011;39692;53.114;7.060;2022-08-05T14:14:50;24.65;;;1.60;;
53781;SDS011;39692;53.114;7.060;2022-08-05T14:17:16;3.03;;;0.60;;
53781;SDS011;39692;53.114;7.060;2022-08-05T14:19:42;0.88;;;0.40;;
53781;SDS011;39692;53.114;7.060;2022-08-05T14:22:08;1.42;;;0.50;;
53781;SDS011;39692;53.114;7.060;2022-08-05T14:24:34;1.85;;;0.50;;
53781;SDS011;39692;53.114;7.060;2022-08-05T14:27:01;3.28;;;0.70;;
53781;SDS011;39692;53.114;7.060;2022-08-05T14:29:27;1.30;;;0.50;;
53781;SDS011;39692;53.114;7.060;2022-08-05T14:31:53;1.45;;;0.50;;
53781;SDS011;39692;53.114;7.060;2022-08-05T14:34:19;1.38;;;0.50;;
53781;SDS011;39692;53.114;7.060;2022-08-05T14:36:44;2.20;;;0.60;;
53781;SDS011;39692;53.114;7.060;2022-08-05T14:39:10;3.50;;;0.50;;
53781;SDS011;39692;53.114;7.060;2022-08-05T14:41:36;1.77;;;0.50;;
53781;SDS011;39692;53.114;7.060;2022-08-05T14:44:02;2.22;;;0.50;;
53781;SDS011;39692;53.114;7.060;2022-08-05T14:46:28;1.83;;;0.55;;
53781;SDS011;39692;53.114;7.060;2022-08-05T14:48:55;2.05;;;0.47;;
53781;SDS011;39692;53.114;7.060;2022-08-05T14:51:22;4.10;;;0.50;;
53781;SDS011;39692;53.114;7.060;2022-08-05T14:53:48;2.78;;;0.57;;
53781;SDS011;39692;53.114;7.060;2022-08-05T14:56:14;4.32;;;0.93;;
53781;SDS011;39692;53.114;7.060;2022-08-05T14:58:40;3.35;;;0.93;;
53781;SDS011;39692;53.114;7.060;2022-08-05T15:01:06;6.13;;;1.10;;
53781;SDS011;39692;53.114;7.060;2022-08-05T15:03:32;4.53;;;1.23;;
53781;SDS011;39692;53.114;7.060;2022-08-05T15:05:58;1.83;;;0.90;;
53781;SDS011;39692;53.114;7.060;2022-08-05T15:08:24;2.72;;;1.10;;
53781;SDS011;39692;53.114;7.060;2022-08-05T15:10:50;5.40;;;1.23;;
53781;SDS011;39692;53.114;7.060;2022-08-05T15:13:16;8.00;;;1.00;;
53781;SDS011;39692;53.114;7.060;2022-08-05T15:15:42;4.07;;;0.88;;
53781;SDS011;39692;53.114;7.060;2022-08-05T15:18:08;3.90;;;0.93;;
53781;SDS011;39692;53.114;7.060;2022-08-05T15:20:33;6.80;;;1.13;;
53781;SDS011;39692;53.114;7.060;2022-08-05T15:23:06;2.65;;;0.63;;
53781;SDS011;39692;53.114;7.060;2022-08-05T15:25:35;2.55;;;0.85;;
53781;SDS011;39692;53.114;7.060;2022-08-05T15:28:04;3.88;;;0.80;;
53781;SDS011;39692;53.114;7.060;2022-08-05T15:30:29;3.50;;;0.90;;
53781;SDS011;39692;53.114;7.060;2022-08-05T15:32:58;2.70;;;0.70;;
53781;SDS011;39692;53.114;7.060;2022-08-05T15:35:24;1.80;;;0.60;;
53781;SDS011;39692;53.114;7.060;2022-08-05T15:37:51;2.53;;;0.70;;